createdAt,value
2017-08-18T00:00:45.076Z,991.96
2017-08-18T00:01:45.073Z,991.93
2017-08-18T00:02:45.077Z,991.95
2017-08-18T00:03:45.079Z,991.95
2017-08-18T00:04:45.078Z,991.94
2017-08-18T00:05:45.078Z,991.96
2017-08-18T00:06:45.079Z,991.94
2017-08-18T00:07:45.083Z,991.91
2017-08-18T00:08:45.085Z,991.9
2017-08-18T00:09:45.089Z,991.85
2017-08-18T00:10:45.092Z,991.84
2017-08-18T00:11:45.095Z,991.87
2017-08-18T00:12:45.098Z,991.91
2017-08-18T00:13:45.100Z,991.86
2017-08-18T00:14:45.104Z,991.84
2017-08-18T00:15:45.108Z,991.85
2017-08-18T00:16:45.108Z,991.79
2017-08-18T00:17:45.116Z,991.81
2017-08-18T00:18:45.115Z,991.81
2017-08-18T00:19:45.120Z,991.76
2017-08-18T00:20:45.121Z,991.73
2017-08-18T00:21:45.124Z,991.75
2017-08-18T00:22:45.126Z,991.75
2017-08-18T00:23:45.134Z,991.87
2017-08-18T00:24:45.146Z,991.77
2017-08-18T00:25:45.142Z,991.76
2017-08-18T00:26:45.145Z,991.81
2017-08-18T00:27:45.145Z,991.78
2017-08-18T00:28:45.143Z,991.77
2017-08-18T00:29:45.155Z,991.75
2017-08-18T00:30:45.155Z,991.71
2017-08-18T00:31:45.160Z,991.72
2017-08-18T00:32:45.157Z,991.74
2017-08-18T00:33:45.158Z,991.72
2017-08-18T00:34:45.162Z,991.72
2017-08-18T00:35:45.164Z,991.68
2017-08-18T00:36:45.164Z,991.7
2017-08-18T00:37:45.170Z,991.67
2017-08-18T00:38:45.175Z,991.68
2017-08-18T00:39:45.176Z,991.73
2017-08-18T00:40:45.176Z,991.68
2017-08-18T00:41:45.181Z,991.69
2017-08-18T00:42:45.186Z,991.7
2017-08-18T00:43:45.185Z,991.67
2017-08-18T00:44:45.190Z,991.63
2017-08-18T00:45:45.191Z,991.64
2017-08-18T00:46:45.195Z,991.66
2017-08-18T00:47:45.198Z,991.64
2017-08-18T00:48:45.201Z,991.64
2017-08-18T00:49:45.205Z,991.62
2017-08-18T00:50:45.207Z,991.57
2017-08-18T00:51:45.210Z,991.62
2017-08-18T00:52:45.213Z,991.59
2017-08-18T00:53:45.226Z,991.61
2017-08-18T00:54:45.224Z,991.6
2017-08-18T00:55:45.225Z,991.61
2017-08-18T00:56:45.225Z,991.6
2017-08-18T00:57:45.231Z,991.6
2017-08-18T00:58:45.229Z,991.6
2017-08-18T00:59:45.232Z,991.6
2017-08-18T01:00:45.238Z,991.57
2017-08-18T01:01:45.241Z,991.58
2017-08-18T01:02:45.243Z,991.6
2017-08-18T01:03:45.244Z,991.64
2017-08-18T01:04:45.248Z,991.61
2017-08-18T01:05:45.249Z,991.6
2017-08-18T01:06:45.253Z,991.58
2017-08-18T01:07:45.256Z,991.61
2017-08-18T01:08:45.258Z,991.58
2017-08-18T01:09:45.262Z,991.6
2017-08-18T01:10:45.264Z,991.61
2017-08-18T01:11:45.266Z,991.58
2017-08-18T01:12:45.270Z,991.54
2017-08-18T01:13:45.271Z,991.53
2017-08-18T01:14:45.284Z,991.48
2017-08-18T01:15:45.279Z,991.45
2017-08-18T01:16:45.281Z,991.44
2017-08-18T01:17:45.283Z,991.45
2017-08-18T01:18:45.285Z,991.4
2017-08-18T01:19:45.288Z,991.41
2017-08-18T01:20:45.292Z,991.34
2017-08-18T01:21:45.295Z,991.35
2017-08-18T01:22:45.298Z,991.29
2017-08-18T01:23:45.304Z,991.34
2017-08-18T01:24:45.303Z,991.32
2017-08-18T01:25:45.309Z,991.27
2017-08-18T01:26:45.309Z,991.29
2017-08-18T01:27:45.311Z,991.26
2017-08-18T01:28:45.313Z,991.25
2017-08-18T01:29:48.272Z,991.21
2017-08-18T01:30:45.320Z,991.19
2017-08-18T01:31:45.324Z,991.16
2017-08-18T01:32:45.330Z,991.16
2017-08-18T01:33:45.329Z,991.12
2017-08-18T01:34:45.331Z,991.1
2017-08-18T01:35:45.333Z,991.12
2017-08-18T01:36:45.340Z,991.14
2017-08-18T01:37:45.340Z,991.14
2017-08-18T01:38:45.342Z,991.18
2017-08-18T01:39:45.344Z,991.22
2017-08-18T01:40:45.349Z,991.23
2017-08-18T01:41:45.352Z,991.25
2017-08-18T01:42:45.352Z,991.26
2017-08-18T01:43:45.355Z,991.29
2017-08-18T01:44:45.359Z,991.28
2017-08-18T01:45:45.363Z,991.27
2017-08-18T01:46:45.366Z,991.24
2017-08-18T01:47:45.366Z,991.24
2017-08-18T01:48:45.370Z,991.22
2017-08-18T01:49:45.373Z,991.17
2017-08-18T01:50:45.375Z,991.17
2017-08-18T01:51:45.377Z,991.16
2017-08-18T01:52:45.386Z,991.12
2017-08-18T01:53:45.383Z,991.14
2017-08-18T01:54:45.387Z,991.12
2017-08-18T01:55:45.389Z,991.12
2017-08-18T01:56:45.393Z,991.1
2017-08-18T01:57:45.395Z,991.1
2017-08-18T01:58:45.396Z,991.11
2017-08-18T01:59:45.426Z,991.12
2017-08-18T02:00:45.401Z,991.07
2017-08-18T02:01:45.413Z,991.09
2017-08-18T02:02:45.420Z,991.15
2017-08-18T02:03:45.417Z,991.14
2017-08-18T02:04:45.417Z,991.14
2017-08-18T02:05:45.482Z,991.15
2017-08-18T02:06:45.477Z,991.16
2017-08-18T02:07:45.423Z,991.22
2017-08-18T02:08:45.425Z,991.19
2017-08-18T02:09:45.428Z,991.23
2017-08-18T02:10:45.431Z,991.24
2017-08-18T02:11:45.438Z,991.27
2017-08-18T02:12:45.436Z,991.3
2017-08-18T02:13:45.443Z,991.29
2017-08-18T02:14:45.442Z,991.27
2017-08-18T02:15:45.444Z,991.3
2017-08-18T02:16:45.447Z,991.32
2017-08-18T02:17:45.451Z,991.3
2017-08-18T02:18:45.452Z,991.29
2017-08-18T02:19:45.456Z,991.21
2017-08-18T02:20:45.459Z,991.24
2017-08-18T02:21:45.460Z,991.18
2017-08-18T02:22:45.468Z,991.18
2017-08-18T02:23:45.465Z,991.23
2017-08-18T02:24:45.469Z,991.19
2017-08-18T02:25:45.472Z,991.24
2017-08-18T02:26:45.475Z,991.2
2017-08-18T02:27:45.487Z,991.19
2017-08-18T02:28:45.484Z,991.17
2017-08-18T02:29:45.487Z,991.18
2017-08-18T02:30:45.486Z,991.16
2017-08-18T02:31:45.489Z,991.14
2017-08-18T02:32:45.494Z,991.14
2017-08-18T02:33:45.493Z,991.14
2017-08-18T02:34:45.496Z,991.13
2017-08-18T02:35:45.499Z,991.11
2017-08-18T02:36:45.503Z,991.11
2017-08-18T02:37:45.507Z,991.11
2017-08-18T02:38:45.508Z,991.11
2017-08-18T02:39:45.509Z,991.12
2017-08-18T02:40:45.511Z,991.09
2017-08-18T02:41:45.514Z,991.11
2017-08-18T02:42:45.517Z,991.14
2017-08-18T02:43:45.520Z,991.16
2017-08-18T02:44:45.522Z,991.15
2017-08-18T02:45:45.526Z,991.15
2017-08-18T02:46:45.535Z,991.14
2017-08-18T02:47:45.537Z,991.12
2017-08-18T02:48:45.534Z,991.1
2017-08-18T02:49:45.534Z,991.09
2017-08-18T02:50:45.537Z,991.08
2017-08-18T02:51:45.538Z,991.06
2017-08-18T02:52:45.542Z,991.08
2017-08-18T02:53:45.545Z,991.1
2017-08-18T02:54:45.549Z,991.05
2017-08-18T02:55:45.552Z,991.1
2017-08-18T02:56:45.553Z,991.15
2017-08-18T02:57:45.556Z,991.15
2017-08-18T02:58:45.558Z,991.12
2017-08-18T02:59:45.560Z,991.13
2017-08-18T03:00:45.564Z,991.12
2017-08-18T03:01:45.568Z,991.15
2017-08-18T03:02:45.568Z,991.16
2017-08-18T03:03:45.570Z,991.15
2017-08-18T03:04:45.574Z,991.13
2017-08-18T03:05:45.576Z,991.11
2017-08-18T03:06:45.580Z,991.1
2017-08-18T03:07:45.581Z,991.1
2017-08-18T03:08:45.584Z,991.06
2017-08-18T03:09:45.587Z,991.08
2017-08-18T03:10:45.590Z,991.1
2017-08-18T03:11:45.591Z,991.1
2017-08-18T03:12:45.594Z,991.05
2017-08-18T03:13:45.596Z,991.08
2017-08-18T03:14:45.599Z,991.08
2017-08-18T03:15:45.602Z,991.04
2017-08-18T03:16:45.604Z,991.07
2017-08-18T03:17:45.606Z,991.09
2017-08-18T03:18:45.621Z,991.09
2017-08-18T03:19:45.623Z,991.07
2017-08-18T03:20:45.621Z,991.05
2017-08-18T03:21:45.620Z,991.06
2017-08-18T03:22:45.622Z,991.06
2017-08-18T03:23:45.623Z,991.03
2017-08-18T03:24:45.623Z,991.01
2017-08-18T03:25:45.625Z,991.06
2017-08-18T03:26:45.628Z,991.04
2017-08-18T03:27:45.632Z,991.04
2017-08-18T03:28:45.636Z,991.05
2017-08-18T03:29:45.637Z,990.98
2017-08-18T03:30:45.639Z,991.04
2017-08-18T03:31:45.643Z,991.04
2017-08-18T03:32:45.649Z,991
2017-08-18T03:33:45.647Z,991.05
2017-08-18T03:34:45.648Z,991.03
2017-08-18T03:35:45.650Z,991.06
2017-08-18T03:36:45.652Z,991.05
2017-08-18T03:37:45.656Z,991.02
2017-08-18T03:38:45.658Z,991.05
2017-08-18T03:39:45.659Z,991.03
2017-08-18T03:40:45.663Z,991.06
2017-08-18T03:41:45.665Z,991.07
2017-08-18T03:42:45.670Z,991.07
2017-08-18T03:43:45.668Z,991.04
2017-08-18T03:44:45.670Z,991.05
2017-08-18T03:45:45.674Z,991
2017-08-18T03:46:45.674Z,991
2017-08-18T03:47:45.679Z,991.09
2017-08-18T03:48:45.680Z,991.09
2017-08-18T03:49:45.682Z,991.11
2017-08-18T03:50:45.681Z,991.07
2017-08-18T03:51:45.683Z,991.1
2017-08-18T03:52:45.685Z,991.08
2017-08-18T03:53:45.685Z,991.15
2017-08-18T03:54:45.689Z,991.16
2017-08-18T03:55:45.689Z,991.21
2017-08-18T03:56:45.690Z,991.2
2017-08-18T03:57:45.691Z,991.18
2017-08-18T03:58:45.692Z,991.11
2017-08-18T03:59:45.693Z,991.22
2017-08-18T04:00:48.801Z,991.13
2017-08-18T04:01:45.697Z,991.14
2017-08-18T04:02:45.701Z,991.17
2017-08-18T04:03:45.701Z,991.15
2017-08-18T04:04:45.705Z,991.14
2017-08-18T04:05:45.704Z,991.14
2017-08-18T04:06:45.708Z,991.11
2017-08-18T04:07:45.713Z,991.13
2017-08-18T04:08:45.710Z,991.08
2017-08-18T04:09:45.712Z,991.1
2017-08-18T04:10:45.715Z,991.12
2017-08-18T04:11:45.716Z,991.16
2017-08-18T04:12:45.717Z,991.15
2017-08-18T04:13:45.722Z,991.12
2017-08-18T04:14:45.725Z,991.16
2017-08-18T04:15:45.723Z,991.18
2017-08-18T04:16:45.725Z,991.19
2017-08-18T04:17:45.726Z,991.19
2017-08-18T04:18:45.729Z,991.24
2017-08-18T04:19:45.731Z,991.2
2017-08-18T04:20:45.734Z,991.23
2017-08-18T04:21:45.734Z,991.23
2017-08-18T04:22:45.737Z,991.21
2017-08-18T04:23:45.739Z,991.2
2017-08-18T04:24:45.743Z,991.23
2017-08-18T04:25:45.745Z,991.24
2017-08-18T04:26:45.745Z,991.21
2017-08-18T04:27:45.748Z,991.23
2017-08-18T04:28:45.750Z,991.21
2017-08-18T04:29:45.751Z,991.21
2017-08-18T04:30:45.754Z,991.19
2017-08-18T04:31:45.756Z,991.15
2017-08-18T04:32:45.759Z,991.15
2017-08-18T04:33:45.762Z,991.14
2017-08-18T04:34:45.765Z,991.1
2017-08-18T04:35:45.765Z,991.09
2017-08-18T04:36:45.769Z,991.05
2017-08-18T04:37:45.786Z,990.99
2017-08-18T04:38:45.772Z,990.97
2017-08-18T04:39:45.775Z,990.95
2017-08-18T04:40:45.785Z,990.95
2017-08-18T04:41:45.779Z,990.91
2017-08-18T04:42:45.783Z,990.94
2017-08-18T04:43:45.786Z,990.92
2017-08-18T04:44:45.786Z,990.91
2017-08-18T04:45:45.788Z,990.94
2017-08-18T04:46:45.790Z,990.94
2017-08-18T04:47:45.794Z,990.97
2017-08-18T04:48:45.804Z,990.97
2017-08-18T04:49:45.803Z,990.98
2017-08-18T04:50:45.800Z,990.96
2017-08-18T04:51:45.809Z,991
2017-08-18T04:52:45.805Z,991.02
2017-08-18T04:53:45.809Z,991
2017-08-18T04:54:45.810Z,990.92
2017-08-18T04:55:45.812Z,990.92
2017-08-18T04:56:45.814Z,990.94
2017-08-18T04:57:45.819Z,991.01
2017-08-18T04:58:45.819Z,991.04
2017-08-18T04:59:45.820Z,991
2017-08-18T05:00:45.823Z,991.07
2017-08-18T05:01:45.826Z,991.08
2017-08-18T05:02:45.829Z,991.11
2017-08-18T05:03:45.837Z,991.07
2017-08-18T05:04:45.836Z,991.06
2017-08-18T05:05:45.847Z,991.06
2017-08-18T05:06:45.847Z,991.07
2017-08-18T05:07:45.844Z,991.08
2017-08-18T05:08:45.874Z,991.16
2017-08-18T05:09:45.854Z,991.25
2017-08-18T05:10:45.863Z,991.24
2017-08-18T05:11:45.866Z,991.23
2017-08-18T05:12:45.873Z,991.18
2017-08-18T05:13:45.869Z,991.11
2017-08-18T05:14:45.872Z,991.06
2017-08-18T05:15:45.877Z,991.09
2017-08-18T05:16:45.882Z,990.99
2017-08-18T05:17:45.887Z,991.01
2017-08-18T05:18:45.892Z,990.99
2017-08-18T05:19:45.898Z,990.98
2017-08-18T05:20:45.904Z,990.96
2017-08-18T05:21:45.913Z,990.95
2017-08-18T05:22:45.912Z,990.95
2017-08-18T05:23:45.925Z,990.95
2017-08-18T05:24:45.926Z,991.01
2017-08-18T05:25:45.929Z,990.93
2017-08-18T05:26:45.933Z,990.82
2017-08-18T05:27:45.938Z,990.8
2017-08-18T05:28:45.943Z,990.8
2017-08-18T05:29:45.948Z,990.84
2017-08-18T05:30:45.951Z,990.81
2017-08-18T05:31:45.957Z,990.76
2017-08-18T05:32:45.961Z,990.75
2017-08-18T05:33:45.966Z,990.76
2017-08-18T05:34:45.974Z,990.74
2017-08-18T05:35:45.974Z,990.69
2017-08-18T05:36:45.979Z,990.69
2017-08-18T05:37:45.988Z,990.69
2017-08-18T05:38:45.992Z,990.7
2017-08-18T05:39:45.992Z,990.69
2017-08-18T05:40:45.995Z,990.72
2017-08-18T05:41:46.002Z,990.69
2017-08-18T05:42:46.005Z,990.79
2017-08-18T05:43:46.007Z,990.74
2017-08-18T05:44:46.010Z,990.74
2017-08-18T05:45:46.016Z,990.74
2017-08-18T05:46:46.971Z,990.74
2017-08-18T05:47:46.022Z,990.81
2017-08-18T05:48:46.028Z,990.76
2017-08-18T05:49:46.030Z,990.73
2017-08-18T05:50:46.035Z,990.74
2017-08-18T05:51:46.037Z,990.66
2017-08-18T05:52:46.041Z,990.71
2017-08-18T05:53:46.044Z,990.74
2017-08-18T05:54:46.047Z,990.78
2017-08-18T05:55:46.051Z,990.74
2017-08-18T05:56:46.056Z,990.77
2017-08-18T05:57:46.058Z,990.77
2017-08-18T05:58:46.061Z,990.79
2017-08-18T05:59:46.088Z,990.82
2017-08-18T06:00:46.079Z,990.78
2017-08-18T06:01:46.077Z,990.81
2017-08-18T06:02:46.080Z,990.84
2017-08-18T06:03:46.080Z,990.84
2017-08-18T06:04:46.087Z,990.8
2017-08-18T06:05:46.091Z,990.83
2017-08-18T06:06:46.094Z,990.86
2017-08-18T06:07:46.101Z,990.82
2017-08-18T06:08:46.100Z,990.83
2017-08-18T06:09:46.105Z,990.82
2017-08-18T06:10:46.109Z,990.86
2017-08-18T06:11:46.114Z,990.87
2017-08-18T06:12:46.117Z,990.86
2017-08-18T06:13:46.123Z,990.8
2017-08-18T06:14:46.130Z,990.8
2017-08-18T06:15:46.131Z,990.76
2017-08-18T06:16:46.135Z,990.73
2017-08-18T06:17:46.138Z,990.75
2017-08-18T06:18:46.144Z,990.67
2017-08-18T06:19:46.150Z,990.66
2017-08-18T06:20:46.152Z,990.7
2017-08-18T06:21:46.157Z,990.69
2017-08-18T06:22:46.164Z,990.73
2017-08-18T06:23:46.167Z,990.77
2017-08-18T06:24:46.169Z,990.76
2017-08-18T06:25:46.175Z,990.79
2017-08-18T06:26:46.180Z,990.79
2017-08-18T06:27:46.182Z,990.8
2017-08-18T06:28:46.188Z,990.85
2017-08-18T06:29:46.192Z,990.91
2017-08-18T06:30:46.198Z,990.95
2017-08-18T06:31:46.201Z,990.97
2017-08-18T06:32:46.206Z,991
2017-08-18T06:33:46.212Z,990.99
2017-08-18T06:34:46.215Z,991.09
2017-08-18T06:35:46.228Z,991.07
2017-08-18T06:36:46.232Z,990.96
2017-08-18T06:37:46.230Z,990.93
2017-08-18T06:38:46.234Z,990.92
2017-08-18T06:39:46.239Z,990.88
2017-08-18T06:40:46.245Z,990.84
2017-08-18T06:41:46.250Z,990.81
2017-08-18T06:42:46.256Z,990.83
2017-08-18T06:43:46.260Z,990.77
2017-08-18T06:44:46.264Z,990.79
2017-08-18T06:45:46.270Z,990.74
2017-08-18T06:46:46.277Z,990.73
2017-08-18T06:47:46.297Z,990.7
2017-08-18T06:48:46.288Z,990.7
2017-08-18T06:49:46.293Z,990.75
2017-08-18T06:50:46.304Z,990.75
2017-08-18T06:51:46.306Z,990.69
2017-08-18T06:52:46.320Z,990.6
2017-08-18T06:53:46.321Z,990.6
2017-08-18T06:54:46.327Z,990.61
2017-08-18T06:55:46.334Z,990.57
2017-08-18T06:56:46.341Z,990.6
2017-08-18T06:57:46.348Z,990.56
2017-08-18T06:58:46.354Z,990.57
2017-08-18T06:59:46.361Z,990.56
2017-08-18T07:00:46.373Z,990.52
2017-08-18T07:01:46.381Z,990.49
2017-08-18T07:02:49.010Z,990.51
2017-08-18T07:03:46.386Z,990.43
2017-08-18T07:04:46.395Z,990.4
2017-08-18T07:05:46.398Z,990.34
2017-08-18T07:06:46.406Z,990.3
2017-08-18T07:07:46.426Z,990.32
2017-08-18T07:08:46.418Z,990.35
2017-08-18T07:09:46.424Z,990.41
2017-08-18T07:10:46.431Z,990.45
2017-08-18T07:11:46.439Z,990.49
2017-08-18T07:12:46.444Z,990.61
2017-08-18T07:13:46.448Z,990.61
2017-08-18T07:14:46.453Z,990.64
2017-08-18T07:15:46.461Z,990.62
2017-08-18T07:16:46.466Z,990.62
2017-08-18T07:17:46.470Z,990.63
2017-08-18T07:18:46.475Z,990.61
2017-08-18T07:19:46.485Z,990.57
2017-08-18T07:20:46.488Z,990.56
2017-08-18T07:21:46.494Z,990.5
2017-08-18T07:22:46.498Z,990.5
2017-08-18T07:23:46.507Z,990.55
2017-08-18T07:24:46.516Z,990.59
2017-08-18T07:25:46.519Z,990.58
2017-08-18T07:26:46.521Z,990.6
2017-08-18T07:27:46.527Z,990.54
2017-08-18T07:28:46.534Z,990.54
2017-08-18T07:29:46.545Z,990.54
2017-08-18T07:30:46.549Z,990.49
2017-08-18T07:31:46.552Z,990.46
2017-08-18T07:32:46.558Z,990.47
2017-08-18T07:33:46.563Z,990.47
2017-08-18T07:34:46.571Z,990.5
2017-08-18T07:35:46.578Z,990.5
2017-08-18T07:36:46.598Z,990.48
2017-08-18T07:37:46.595Z,990.49
2017-08-18T07:38:46.599Z,990.42
2017-08-18T07:39:46.600Z,990.46
2017-08-18T07:40:46.612Z,990.42
2017-08-18T07:41:46.614Z,990.43
2017-08-18T07:42:46.621Z,990.41
2017-08-18T07:43:46.633Z,990.42
2017-08-18T07:44:46.634Z,990.38
2017-08-18T07:45:46.641Z,990.37
2017-08-18T07:46:46.645Z,990.35
2017-08-18T07:47:46.648Z,990.31
2017-08-18T07:48:46.657Z,990.28
2017-08-18T07:49:46.656Z,990.33
2017-08-18T07:50:46.673Z,990.41
2017-08-18T07:51:46.672Z,990.39
2017-08-18T07:52:46.683Z,990.32
2017-08-18T07:53:46.676Z,990.39
2017-08-18T07:54:46.692Z,990.4
2017-08-18T07:55:46.685Z,990.48
2017-08-18T07:56:46.705Z,990.47
2017-08-18T07:57:46.707Z,990.52
2017-08-18T07:58:46.701Z,990.51
2017-08-18T07:59:46.725Z,990.5
2017-08-18T08:00:46.725Z,990.48
2017-08-18T08:01:46.731Z,990.54
2017-08-18T08:02:46.736Z,990.54
2017-08-18T08:03:46.734Z,990.56
2017-08-18T08:04:46.740Z,990.62
2017-08-18T08:05:46.751Z,990.61
2017-08-18T08:06:46.750Z,990.68
2017-08-18T08:07:46.755Z,990.66
2017-08-18T08:08:46.757Z,990.7
2017-08-18T08:09:46.760Z,990.7
2017-08-18T08:10:46.775Z,990.62
2017-08-18T08:11:46.780Z,990.72
2017-08-18T08:12:46.789Z,990.6
2017-08-18T08:13:46.791Z,990.53
2017-08-18T08:14:46.804Z,990.58
2017-08-18T08:15:46.810Z,990.5
2017-08-18T08:16:46.807Z,990.46
2017-08-18T08:17:46.813Z,990.44
2017-08-18T08:18:46.821Z,990.42
2017-08-18T08:19:46.828Z,990.47
2017-08-18T08:20:46.834Z,990.55
2017-08-18T08:21:46.843Z,990.55
2017-08-18T08:22:46.857Z,990.53
2017-08-18T08:23:46.862Z,990.53
2017-08-18T08:24:46.864Z,990.48
2017-08-18T08:25:46.871Z,990.49
2017-08-18T08:26:46.881Z,990.48
2017-08-18T08:27:46.889Z,990.4
2017-08-18T08:28:46.898Z,990.41
2017-08-18T08:29:46.909Z,990.34
2017-08-18T08:30:46.921Z,990.4
2017-08-18T08:31:46.925Z,990.41
2017-08-18T08:32:46.935Z,990.36
2017-08-18T08:33:49.398Z,990.31
2017-08-18T08:34:46.957Z,990.25
2017-08-18T08:35:46.965Z,990.22
2017-08-18T08:36:46.975Z,990.27
2017-08-18T08:37:46.985Z,990.21
2017-08-18T08:38:46.994Z,990.16
2017-08-18T08:39:47.005Z,990.2
2017-08-18T08:40:47.016Z,990.24
2017-08-18T08:41:47.028Z,990.22
2017-08-18T08:42:47.037Z,990.27
2017-08-18T08:43:47.057Z,990.15
2017-08-18T08:44:47.060Z,990.25
2017-08-18T08:45:47.066Z,990.18
2017-08-18T08:46:47.076Z,990.27
2017-08-18T08:47:47.085Z,990.18
2017-08-18T08:48:47.096Z,990.2
2017-08-18T08:49:47.104Z,990.18
2017-08-18T08:50:47.115Z,990.15
2017-08-18T08:51:47.123Z,990.12
2017-08-18T08:52:47.130Z,990.1
2017-08-18T08:53:47.140Z,990.12
2017-08-18T08:54:47.147Z,990.15
2017-08-18T08:55:47.156Z,990.17
2017-08-18T08:56:47.164Z,990.08
2017-08-18T08:57:47.171Z,990.11
2017-08-18T08:58:47.179Z,990.1
2017-08-18T08:59:47.188Z,990.08
2017-08-18T09:00:47.193Z,990.03
2017-08-18T09:01:47.202Z,990.07
2017-08-18T09:02:47.212Z,990.04
2017-08-18T09:03:47.219Z,990.08
2017-08-18T09:04:47.223Z,990.11
2017-08-18T09:05:47.231Z,990.06
2017-08-18T09:06:47.245Z,990.04
2017-08-18T09:07:47.244Z,990.07
2017-08-18T09:08:47.250Z,989.99
2017-08-18T09:09:47.257Z,989.95
2017-08-18T09:10:47.266Z,989.99
2017-08-18T09:11:47.270Z,989.98
2017-08-18T09:12:47.277Z,989.9
2017-08-18T09:13:47.289Z,989.89
2017-08-18T09:14:47.293Z,989.87
2017-08-18T09:15:47.297Z,989.87
2017-08-18T09:16:47.304Z,989.77
2017-08-18T09:17:47.312Z,989.77
2017-08-18T09:18:47.318Z,989.73
2017-08-18T09:19:47.330Z,989.71
2017-08-18T09:20:47.331Z,989.71
2017-08-18T09:21:47.337Z,989.67
2017-08-18T09:22:47.353Z,989.67
2017-08-18T09:23:47.354Z,989.71
2017-08-18T09:24:47.358Z,989.64
2017-08-18T09:25:47.363Z,989.63
2017-08-18T09:26:47.370Z,989.6
2017-08-18T09:27:47.380Z,989.61
2017-08-18T09:28:47.385Z,989.58
2017-08-18T09:29:47.391Z,989.58
2017-08-18T09:30:47.398Z,989.53
2017-08-18T09:31:47.406Z,989.51
2017-08-18T09:32:47.410Z,989.51
2017-08-18T09:33:47.417Z,989.48
2017-08-18T09:34:51.430Z,989.44
2017-08-18T09:35:47.431Z,989.4
2017-08-18T09:36:47.439Z,989.43
2017-08-18T09:37:47.444Z,989.41
2017-08-18T09:38:47.452Z,989.4
2017-08-18T09:39:47.457Z,989.35
2017-08-18T09:40:47.465Z,989.31
2017-08-18T09:41:47.471Z,989.42
2017-08-18T09:42:47.476Z,989.43
2017-08-18T09:43:47.485Z,989.43
2017-08-18T09:44:47.491Z,989.39
2017-08-18T09:45:47.498Z,989.38
2017-08-18T09:46:47.505Z,989.4
2017-08-18T09:47:47.512Z,989.36
2017-08-18T09:48:47.519Z,989.34
2017-08-18T09:49:47.527Z,989.36
2017-08-18T09:50:47.532Z,989.34
2017-08-18T09:51:47.538Z,989.33
2017-08-18T09:52:47.548Z,989.3
2017-08-18T09:53:47.550Z,989.28
2017-08-18T09:54:47.557Z,989.3
2017-08-18T09:55:47.565Z,989.29
2017-08-18T09:56:47.604Z,989.27
2017-08-18T09:57:47.601Z,989.24
2017-08-18T09:58:47.599Z,989.24
2017-08-18T09:59:47.601Z,989.17
2017-08-18T10:00:47.637Z,989.18
2017-08-18T10:01:47.626Z,989.18
2017-08-18T10:02:47.637Z,989.19
2017-08-18T10:03:47.635Z,989.16
2017-08-18T10:04:47.631Z,989.13
2017-08-18T10:05:47.666Z,989.13
2017-08-18T10:06:47.654Z,989.13
2017-08-18T10:07:47.659Z,989.11
2017-08-18T10:08:47.669Z,989.11
2017-08-18T10:09:47.668Z,989.1
2017-08-18T10:10:47.762Z,989.12
2017-08-18T10:11:47.699Z,989.09
2017-08-18T10:12:47.703Z,989.09
2017-08-18T10:13:47.689Z,989.12
2017-08-18T10:14:47.690Z,989.12
2017-08-18T10:15:47.698Z,989.12
2017-08-18T10:16:47.704Z,989.1
2017-08-18T10:17:47.716Z,989.05
2017-08-18T10:18:47.720Z,989.02
2017-08-18T10:19:47.724Z,988.97
2017-08-18T10:20:47.733Z,988.95
2017-08-18T10:21:47.735Z,988.95
2017-08-18T10:22:47.752Z,988.88
2017-08-18T10:23:47.751Z,988.91
2017-08-18T10:24:47.757Z,988.9
2017-08-18T10:25:47.765Z,988.89
2017-08-18T10:26:47.771Z,988.87
2017-08-18T10:27:47.782Z,988.83
2017-08-18T10:28:47.785Z,988.81
2017-08-18T10:29:47.791Z,988.8
2017-08-18T10:30:47.809Z,988.78
2017-08-18T10:31:47.812Z,988.74
2017-08-18T10:32:47.811Z,988.73
2017-08-18T10:33:47.817Z,988.7
2017-08-18T10:34:47.825Z,988.68
2017-08-18T10:35:49.833Z,988.73
2017-08-18T10:36:47.837Z,988.73
2017-08-18T10:37:47.850Z,988.77
2017-08-18T10:38:47.851Z,988.79
2017-08-18T10:39:47.859Z,988.77
2017-08-18T10:40:47.873Z,988.78
2017-08-18T10:41:47.872Z,988.76
2017-08-18T10:42:47.878Z,988.79
2017-08-18T10:43:47.882Z,988.73
2017-08-18T10:44:47.891Z,988.75
2017-08-18T10:45:47.897Z,988.71
2017-08-18T10:46:47.903Z,988.7
2017-08-18T10:47:47.911Z,988.73
2017-08-18T10:48:47.917Z,988.68
2017-08-18T10:49:47.929Z,988.68
2017-08-18T10:50:47.937Z,988.68
2017-08-18T10:51:47.942Z,988.61
2017-08-18T10:52:47.944Z,988.62
2017-08-18T10:53:47.951Z,988.56
2017-08-18T10:54:47.957Z,988.53
2017-08-18T10:55:47.963Z,988.51
2017-08-18T10:56:47.972Z,988.51
2017-08-18T10:57:48.002Z,988.49
2017-08-18T10:58:47.983Z,988.45
2017-08-18T10:59:47.990Z,988.42
2017-08-18T11:00:47.997Z,988.4
2017-08-18T11:01:48.031Z,988.35
2017-08-18T11:02:48.013Z,988.4
2017-08-18T11:03:48.019Z,988.39
2017-08-18T11:04:48.022Z,988.41
2017-08-18T11:05:48.027Z,988.36
2017-08-18T11:06:48.035Z,988.32
2017-08-18T11:07:48.041Z,988.3
2017-08-18T11:08:48.073Z,988.32
2017-08-18T11:09:48.054Z,988.4
2017-08-18T11:10:48.059Z,988.35
2017-08-18T11:11:48.067Z,988.33
2017-08-18T11:12:48.125Z,988.33
2017-08-18T11:13:48.079Z,988.27
2017-08-18T11:14:48.086Z,988.32
2017-08-18T11:15:48.093Z,988.26
2017-08-18T11:16:48.098Z,988.23
2017-08-18T11:17:48.105Z,988.32
2017-08-18T11:18:48.111Z,988.26
2017-08-18T11:19:48.119Z,988.31
2017-08-18T11:20:48.130Z,988.23
2017-08-18T11:21:48.133Z,988.18
2017-08-18T11:22:48.138Z,988.15
2017-08-18T11:23:48.144Z,988.1
2017-08-18T11:24:48.151Z,988.21
2017-08-18T11:25:48.157Z,988.26
2017-08-18T11:26:48.165Z,988.17
2017-08-18T11:27:48.171Z,988.2
2017-08-18T11:28:48.177Z,988.13
2017-08-18T11:29:48.184Z,988.12
2017-08-18T11:30:48.193Z,988.11
2017-08-18T11:31:48.205Z,988.06
2017-08-18T11:32:48.204Z,988
2017-08-18T11:33:48.213Z,987.98
2017-08-18T11:34:48.219Z,987.96
2017-08-18T11:35:48.225Z,987.99
2017-08-18T11:36:48.233Z,988.01
2017-08-18T11:37:48.245Z,987.96
2017-08-18T11:38:48.250Z,988
2017-08-18T11:39:48.257Z,987.98
2017-08-18T11:40:48.271Z,987.99
2017-08-18T11:41:48.274Z,987.92
2017-08-18T11:42:48.280Z,987.83
2017-08-18T11:43:48.283Z,987.79
2017-08-18T11:44:48.290Z,987.77
2017-08-18T11:45:48.303Z,987.76
2017-08-18T11:46:48.308Z,987.81
2017-08-18T11:47:48.310Z,987.86
2017-08-18T11:48:48.316Z,987.83
2017-08-18T11:49:48.325Z,987.85
2017-08-18T11:50:48.336Z,987.8
2017-08-18T11:51:48.342Z,987.79
2017-08-18T11:52:48.345Z,987.73
2017-08-18T11:53:48.352Z,987.71
2017-08-18T11:54:48.367Z,987.69
2017-08-18T11:55:48.366Z,987.74
2017-08-18T11:56:48.373Z,987.68
2017-08-18T11:57:48.380Z,987.61
2017-08-18T11:58:48.389Z,987.65
2017-08-18T11:59:48.394Z,987.56
2017-08-18T12:00:48.403Z,987.49
2017-08-18T12:01:48.409Z,987.49
2017-08-18T12:02:48.416Z,987.45
2017-08-18T12:03:48.422Z,987.48
2017-08-18T12:04:48.430Z,987.39
2017-08-18T12:05:48.438Z,987.42
2017-08-18T12:06:50.296Z,987.38
2017-08-18T12:07:48.454Z,987.37
2017-08-18T12:08:48.458Z,987.45
2017-08-18T12:09:48.465Z,987.41
2017-08-18T12:10:48.472Z,987.35
2017-08-18T12:11:48.480Z,987.32
2017-08-18T12:12:48.496Z,987.3
2017-08-18T12:13:48.499Z,987.25
2017-08-18T12:14:48.508Z,987.25
2017-08-18T12:15:48.510Z,987.11
2017-08-18T12:16:48.530Z,987.21
2017-08-18T12:17:48.529Z,987.19
2017-08-18T12:18:48.530Z,987.16
2017-08-18T12:19:48.543Z,987.13
2017-08-18T12:20:48.559Z,987.16
2017-08-18T12:21:48.571Z,987.06
2017-08-18T12:22:48.567Z,987.13
2017-08-18T12:23:48.575Z,987.13
2017-08-18T12:24:48.599Z,987.16
2017-08-18T12:25:48.601Z,987.13
2017-08-18T12:26:48.590Z,987.17
2017-08-18T12:27:48.604Z,987.29
2017-08-18T12:28:48.626Z,987.31
2017-08-18T12:29:48.613Z,987.23
2017-08-18T12:30:48.628Z,987.3
2017-08-18T12:31:48.635Z,987.24
2017-08-18T12:32:48.641Z,987.15